Aeroporto :
LOGIN :

Iscrizione | Disclaimer

   EN    FR    IT 

 










Sommario :    VFR   VFR Marginale   IFR   IFR Intensivo   IFR Molto Intensivo
Visibilità : 
Base nubi : 
>= 8 km
>= 3000ft
5 / 8 km
1000 / 3000 ft
1500m / 5 km
500 / 1000 ft
800 / 1500m
200 / 500 ft
< 800m
< 200 ft
Simboli :   Temporali  Nebbia  Neve Forte  Precipitazioni Forti  Vento > 20 kt
SIGMETs :   Varie  Temporali  Ghiacco  Turbolenza  Onda orograficha  Ceneri Vulcaniche






- Altitudine del aeroporto : 13 ft
- Codice IATA : LYX


EGMD - Lydd

ULTIMO METAR :
  • 031920Z AUTO 24010KT 9999 FEW015/// SCT023/// 08/06 Q0978

METARs OBSOLETI :
  • 031850Z AUTO 23014KT 9999 FEW015/// SCT019/// BKN030/// 08/07 Q0979
  • 031820Z AUTO 20012KT 7000 -RA FEW013/// SCT018/// BKN024/// 08/07 Q0979
  • 031750Z AUTO 21022KT 9999 FEW007/// SCT010/// BKN015/// 08/07 Q0979 RERA
  • 031720Z AUTO 19026KT 1500 +RA BKN012/// OVC017/// 09/08 Q0980
  • 031650Z AUTO 19028KT 6000 -RA BKN012/// BKN016/// OVC026/// 09/07 Q0980

TAF TAF EGMD
Valido dal 03 a 18 ore il 04 a 03 ore UTC


031702Z 0318/0403 19018KT 9999 SCT020
TEMPO 0318/0321 18025G35KT 6000 RA BKN012
PROB30
TEMPO 0318/0403 3000 RADZ +RA
TEMPO 0321/0403 6000 RA BKN012
ATIS : +44 1797 322 422



MetMap, La meteo Aeronautica in un colpo d'occhio ! - Copyright ORBIFLY Dicembre 2007 - Disclaimer

ORBIFLY MET'MAP TEAM :

Programmazione e sviluppo : Alexandra Zaïnal
Concezione : Baudouin d'Aumeries
Aiuto per la programmazione : Marc-Olivier Méhu
Supporto tecnico e logistico : Manuel Goepfert
Aiuto per la traduzione : Arnaldo La Scala

Contatto : metmap@orbifly.com




FONTI E CREDITI :

   NOAA